Time;durP1;ratioP1;P1;durP2;ratioP2;P2;SDS_P1;SDS_P2;PMS_P1;PMS_P2;Temp;Humidity;BMP_temperature;BMP_pressure;BME280_temperature;BME280_humidity;BME280_pressure;Samples;Min_cycle;Max_cycle;Signal;HPM_P1;HPM_P2
2022/09/26 00:01:41;;;;;;;15.00;5.10;;;21.80;99.90;;;;;;4941599;29;20050;-91
2022/09/26 00:04:23;;;;;;;21.13;5.40;;;21.80;99.90;;;;;;4941041;29;20031;-90
2022/09/26 00:06:53;;;;;;;13.88;4.82;;;21.80;99.90;;;;;;4941228;29;20078;-90
2022/09/26 00:09:21;;;;;;;17.63;4.82;;;21.70;99.90;;;;;;4940933;29;20031;-89
2022/09/26 00:11:48;;;;;;;17.60;4.93;;;21.70;99.90;;;;;;4941135;29;20028;-89
2022/09/26 00:14:22;;;;;;;15.52;4.45;;;21.70;99.90;;;;;;4941135;29;20408;-90
2022/09/26 00:16:49;;;;;;;;;;;21.80;99.90;;;;;;4941564;29;20035;-90
2022/09/26 00:19:16;;;;;;;16.45;4.90;;;21.80;99.90;;;;;;4940989;29;19925;-90
2022/09/26 00:21:43;;;;;;;19.25;5.03;;;21.80;99.90;;;;;;4940801;29;20492;-90
2022/09/26 00:24:10;;;;;;;15.88;4.93;;;21.90;99.90;;;;;;4941041;29;20477;-89
2022/09/26 00:26:37;;;;;;;7.20;4.30;;;21.90;99.90;;;;;;4940618;29;20043;-89
2022/09/26 00:29:10;;;;;;;15.80;4.43;;;21.90;99.90;;;;;;4940841;29;20119;-90
2022/09/26 00:31:49;;;;;;;13.77;4.80;;;21.90;99.90;;;;;;4940855;29;20066;-90
2022/09/26 00:34:20;;;;;;;10.60;4.25;;;21.90;99.90;;;;;;4940735;29;20113;-90
2022/09/26 00:36:48;;;;;;;16.58;4.68;;;21.90;99.90;;;;;;4940803;29;20389;-89
2022/09/26 00:39:15;;;;;;;17.70;4.50;;;21.90;99.90;;;;;;4940449;29;20039;-90
2022/09/26 00:41:42;;;;;;;19.05;4.78;;;21.90;99.90;;;;;;4940486;28;20027;-91
2022/09/26 00:44:36;;;;;;;17.65;4.40;;;21.90;99.90;;;;;;4940841;29;20034;-89
2022/09/26 00:47:04;;;;;;;9.65;3.67;;;21.90;99.90;;;;;;4940519;29;20059;-89
2022/09/26 00:49:37;;;;;;;12.00;3.90;;;21.90;99.90;;;;;;4940527;29;20035;-90
2022/09/26 00:52:22;;;;;;;15.15;4.47;;;21.90;99.90;;;;;;4940460;29;20469;-90
2022/09/26 00:54:53;;;;;;;17.27;5.57;;;21.90;99.90;;;;;;4940383;29;20031;-89
2022/09/26 00:57:33;;;;;;;12.70;4.60;;;21.90;99.90;;;;;;4940184;29;20100;-89
2022/09/26 01:00:08;;;;;;;18.73;4.97;;;21.80;99.90;;;;;;4940138;29;20110;-89
2022/09/26 01:02:35;;;;;;;17.10;4.88;;;21.80;99.90;;;;;;4940168;29;20031;-88
2022/09/26 01:05:22;;;;;;;14.55;4.47;;;21.80;99.90;;;;;;4939293;29;20027;-90
2022/09/26 01:07:52;;;;;;;22.92;4.78;;;21.80;99.90;;;;;;4940154;29;20027;-89
2022/09/26 01:10:29;;;;;;;17.65;5.20;;;21.80;99.90;;;;;;4939998;29;20031;-90
2022/09/26 01:12:58;;;;;;;21.38;5.10;;;21.70;99.90;;;;;;4939911;29;20385;-89
2022/09/26 01:15:33;;;;;;;13.35;4.57;;;21.70;99.90;;;;;;4939790;29;20067;-90
2022/09/26 01:17:59;;;;;;;18.75;4.40;;;21.70;99.90;;;;;;4940213;29;20094;-90
2022/09/26 01:20:43;;;;;;;19.85;5.05;;;21.70;99.90;;;;;;4940829;29;20405;-90
2022/09/26 01:23:22;;;;;;;14.68;4.47;;;21.70;99.90;;;;;;4939938;29;20034;-90
2022/09/26 01:26:07;;;;;;;15.93;5.05;;;21.70;99.90;;;;;;4939659;29;20035;-90
2022/09/26 01:28:56;;;;;;;12.48;4.90;;;21.70;99.90;;;;;;4939881;29;20069;-91
2022/09/26 01:31:42;;;;;;;16.27;4.45;;;21.70;99.90;;;;;;4955865;29;20496;-89
2022/09/26 01:34:21;;;;;;;15.70;5.30;;;21.70;99.90;;;;;;4939384;28;20047;-89
2022/09/26 01:37:09;;;;;;;11.57;4.38;;;21.70;99.90;;;;;;4939688;29;20117;-90
2022/09/26 01:39:53;;;;;;;19.25;5.00;;;21.70;99.90;;;;;;4939476;29;20028;-89
2022/09/26 01:42:35;;;;;;;21.00;5.37;;;21.70;99.90;;;;;;4939572;29;20027;-90
2022/09/26 01:45:18;;;;;;;18.45;4.28;;;21.70;99.90;;;;;;4939442;28;20337;-89
2022/09/26 01:48:09;;;;;;;24.17;4.83;;;21.70;99.90;;;;;;4939642;29;20023;-90
2022/09/26 01:50:49;;;;;;;17.42;5.15;;;21.70;99.90;;;;;;4939369;29;20034;-89
2022/09/26 01:53:33;;;;;;;17.25;5.20;;;21.70;99.90;;;;;;4939357;29;20027;-90
2022/09/26 01:56:13;;;;;;;15.47;4.67;;;21.80;99.90;;;;;;4939487;28;20069;-88
2022/09/26 01:59:16;;;;;;;23.95;5.07;;;21.70;99.90;;;;;;4939342;29;20039;-90
2022/09/26 02:01:56;;;;;;;19.10;4.57;;;21.70;99.90;;;;;;4939771;29;20046;-89
2022/09/26 02:04:43;;;;;;;17.42;4.80;;;21.70;99.90;;;;;;4939148;29;20485;-89
2022/09/26 02:07:31;;;;;;;13.20;4.28;;;21.70;99.90;;;;;;4954795;29;20059;-90
2022/09/26 02:10:08;;;;;;;20.42;5.22;;;21.70;99.90;;;;;;4954962;29;20030;-88
2022/09/26 02:12:40;;;;;;;16.77;4.00;;;21.60;99.90;;;;;;4938752;29;20078;-89
2022/09/26 02:15:10;;;;;;;16.02;4.13;;;21.60;99.90;;;;;;4939088;29;20401;-89
2022/09/26 02:17:45;;;;;;;18.70;4.15;;;21.70;99.90;;;;;;4939045;29;20031;-89
2022/09/26 02:20:38;;;;;;;12.75;3.97;;;21.60;99.90;;;;;;4938725;29;20039;-90
2022/09/26 02:23:11;;;;;;;16.63;3.97;;;21.60;99.90;;;;;;4938754;29;20031;-89
2022/09/26 02:25:38;;;;;;;14.15;4.18;;;21.70;99.90;;;;;;4938842;29;20039;-90
2022/09/26 02:28:05;;;;;;;14.80;4.45;;;21.70;99.90;;;;;;4938927;29;20027;-89
2022/09/26 02:30:36;;;;;;;12.80;3.63;;;21.70;99.90;;;;;;4923430;29;20493;-89
2022/09/26 02:33:03;;;;;;;11.02;3.20;;;21.70;99.90;;;;;;4938736;29;20041;-89
2022/09/26 02:38:17;;;;;;;18.80;4.70;;;21.70;99.90;;;;;;4954661;29;20027;-90
2022/09/26 02:41:17;;;;;;;14.40;4.78;;;21.60;99.90;;;;;;4940210;29;20512;-89
2022/09/26 02:44:07;;;;;;;10.98;4.00;;;21.70;99.90;;;;;;4939077;29;20031;-91
2022/09/26 02:46:42;;;;;;;22.35;5.28;;;21.70;99.90;;;;;;4939157;29;20386;-90
2022/09/26 02:49:33;;;;;;;18.02;5.70;;;21.60;99.90;;;;;;4940172;29;20050;-90
2022/09/26 02:52:23;;;;;;;16.30;5.03;;;21.60;99.90;;;;;;4938572;29;20027;-89
2022/09/26 02:55:19;;;;;;;21.73;4.93;;;21.60;99.90;;;;;;4938928;29;20035;-89
2022/09/26 02:58:17;;;;;;;14.13;5.03;;;21.60;99.90;;;;;;4938641;29;20031;-90
2022/09/26 03:01:14;;;;;;;19.98;5.20;;;21.60;99.90;;;;;;4938488;29;20125;-89
2022/09/26 03:03:51;;;;;;;14.13;4.43;;;21.50;99.90;;;;;;4938825;29;20024;-89
2022/09/26 03:06:41;;;;;;;15.35;4.03;;;21.50;99.90;;;;;;4938570;29;20035;-89
2022/09/26 03:09:11;;;;;;;14.55;4.20;;;21.50;99.90;;;;;;4938573;29;20162;-89
2022/09/26 03:11:39;;;;;;;20.00;3.88;;;21.50;99.90;;;;;;4938598;29;20508;-89
2022/09/26 03:14:10;;;;;;;18.10;4.00;;;21.50;99.90;;;;;;4938554;29;20032;-91
2022/09/26 03:16:41;;;;;;;21.45;5.05;;;21.50;99.90;;;;;;4938418;29;20110;-90
2022/09/26 03:19:11;;;;;;;16.25;4.40;;;21.50;99.90;;;;;;4938540;29;20470;-90
2022/09/26 03:21:37;;;;;;;17.98;4.75;;;21.50;99.90;;;;;;4938528;29;20035;-89
2022/09/26 03:24:05;;;;;;;13.60;3.55;;;21.50;99.90;;;;;;4938594;29;20034;-90
2022/09/26 03:26:34;;;;;;;15.93;3.78;;;21.60;99.90;;;;;;4938388;29;20109;-89
2022/09/26 03:29:03;;;;;;;14.93;4.68;;;21.60;99.90;;;;;;4941924;29;20023;-89
2022/09/26 03:31:35;;;;;;;14.50;4.00;;;21.60;99.90;;;;;;4943024;29;20031;-90
2022/09/26 03:34:06;;;;;;;21.98;4.18;;;21.60;99.90;;;;;;4942223;29;20130;-89
2022/09/26 03:36:33;;;;;;;15.85;4.20;;;21.60;99.90;;;;;;4941880;29;20042;-89
2022/09/26 03:39:05;;;;;;;14.00;3.60;;;21.60;99.90;;;;;;4941979;29;20548;-91
2022/09/26 03:41:52;;;;;;;22.58;4.68;;;21.60;99.90;;;;;;4957077;28;20043;-90
2022/09/26 03:44:24;;;;;;;15.05;4.07;;;21.60;99.90;;;;;;4941993;29;20039;-89
2022/09/26 03:47:09;;;;;;;17.88;4.72;;;21.60;99.90;;;;;;4957775;28;20129;-89
2022/09/26 03:49:40;;;;;;;15.88;5.05;;;21.60;99.90;;;;;;4942010;29;20063;-90
2022/09/26 03:52:10;;;;;;;14.52;4.13;;;21.60;99.90;;;;;;4941662;29;20046;-89
2022/09/26 03:54:40;;;;;;;15.07;4.43;;;21.60;99.90;;;;;;4941880;29;20035;-89
2022/09/26 03:57:09;;;;;;;17.10;4.03;;;21.60;99.90;;;;;;4941599;29;20024;-92
2022/09/26 03:59:41;;;;;;;;;;;21.60;99.90;;;;;;4943729;29;20366;-90
2022/09/26 04:02:08;;;;;;;15.38;4.35;;;21.60;99.90;;;;;;4941723;29;19914;-90
2022/09/26 04:04:39;;;;;;;16.08;4.22;;;21.70;99.90;;;;;;4942072;29;20042;-90
2022/09/26 04:07:16;;;;;;;19.73;4.72;;;21.70;99.90;;;;;;4941390;29;20023;-91
2022/09/26 04:09:43;;;;;;;20.27;4.25;;;21.70;99.90;;;;;;4941373;29;20046;-90
2022/09/26 04:12:11;;;;;;;21.52;4.28;;;21.80;99.90;;;;;;4941309;29;20122;-91
2022/09/26 04:14:43;;;;;;;17.75;4.47;;;21.80;99.90;;;;;;4941542;29;20038;-90
2022/09/26 04:17:11;;;;;;;16.27;4.45;;;21.80;99.90;;;;;;4941087;29;20118;-91
2022/09/26 04:19:42;;;;;;;11.68;3.72;;;21.80;99.90;;;;;;4941562;29;20062;-92
2022/09/26 04:22:09;;;;;;;15.60;3.85;;;21.80;99.90;;;;;;4944097;29;20123;-91
2022/09/26 04:24:37;;;;;;;19.63;4.13;;;21.80;99.90;;;;;;4941342;29;20035;-89
2022/09/26 04:27:03;;;;;;;15.65;3.50;;;21.80;99.90;;;;;;4941080;29;20485;-90
2022/09/26 04:29:31;;;;;;;12.95;4.05;;;21.80;99.90;;;;;;4940993;29;20023;-91
2022/09/26 04:32:09;;;;;;;11.27;4.07;;;21.80;99.90;;;;;;4942421;29;20464;-91
2022/09/26 04:34:59;;;;;;;13.32;4.10;;;21.80;99.90;;;;;;4949952;28;20130;-90
2022/09/26 04:37:26;;;;;;;18.38;4.45;;;21.80;99.90;;;;;;4941686;28;20059;-91
2022/09/26 04:39:53;;;;;;;17.42;4.25;;;21.80;99.90;;;;;;4940742;29;20047;-92
2022/09/26 04:42:20;;;;;;;15.88;3.97;;;21.80;99.90;;;;;;4941005;29;20027;-91
2022/09/26 04:44:47;;;;;;;15.45;4.00;;;21.80;99.90;;;;;;4940576;29;20444;-91
2022/09/26 04:47:16;;;;;;;18.00;4.25;;;21.90;99.90;;;;;;4940812;29;20058;-91
2022/09/26 04:50:09;;;;;;;10.68;4.32;;;21.90;99.90;;;;;;4934822;29;20028;-90
2022/09/26 04:52:35;;;;;;;15.45;4.30;;;21.90;99.90;;;;;;4940597;29;20099;-90
2022/09/26 04:55:02;;;;;;;16.30;4.70;;;21.90;99.90;;;;;;4940650;29;20055;-89
2022/09/26 04:57:30;;;;;;;14.70;4.25;;;21.90;99.90;;;;;;4940507;29;20081;-91
2022/09/26 04:59:57;;;;;;;14.65;4.63;;;21.90;99.90;;;;;;4940576;29;20110;-91
2022/09/26 05:02:23;;;;;;;22.13;4.53;;;22.00;99.90;;;;;;4941079;29;20108;-91
2022/09/26 05:04:54;;;;;;;16.65;5.05;;;22.00;99.90;;;;;;4940129;28;20027;-90
2022/09/26 05:07:21;;;;;;;17.73;5.90;;;22.00;99.90;;;;;;4940365;29;20035;-92
2022/09/26 05:09:48;;;;;;;19.77;6.88;;;22.00;99.90;;;;;;4940331;29;20075;-90
2022/09/26 05:12:23;;;;;;;17.02;6.65;;;22.00;99.90;;;;;;4941240;29;20038;-89
2022/09/26 05:14:52;;;;;;;18.17;7.82;;;22.10;99.90;;;;;;4941366;29;20396;-90
2022/09/26 05:17:23;;;;;;;39.80;13.60;;;22.10;99.90;;;;;;4941676;29;20031;-91
2022/09/26 05:19:51;;;;;;;48.92;22.00;;;22.10;99.90;;;;;;4940224;29;20094;-92
2022/09/26 05:22:30;;;;;;;26.88;10.43;;;22.10;99.90;;;;;;4941260;29;20034;-92
2022/09/26 05:27:43;;;;;;;18.08;4.22;;;22.20;99.90;;;;;;4955650;28;20114;-90
2022/09/26 05:30:11;;;;;;;15.52;3.72;;;22.20;99.90;;;;;;4939957;29;20038;-90
2022/09/26 05:32:39;;;;;;;15.40;4.38;;;22.20;99.90;;;;;;4939800;28;20101;-90
2022/09/26 05:35:07;;;;;;;11.65;3.53;;;22.30;99.90;;;;;;4939484;29;20089;-90
2022/09/26 05:37:39;;;;;;;9.35;3.33;;;22.30;99.90;;;;;;4940371;29;20023;-89
2022/09/26 05:43:02;;;;;;;13.45;4.43;;;22.40;99.90;;;;;;4955567;29;20082;-91
2022/09/26 05:45:30;;;;;;;22.33;4.75;;;22.50;99.90;;;;;;4939525;29;20465;-91
2022/09/26 05:47:57;;;;;;;15.38;4.57;;;22.50;99.90;;;;;;4939838;28;20106;-91
2022/09/26 05:50:24;;;;;;;16.75;4.07;;;22.60;99.90;;;;;;4939417;29;20051;-91
2022/09/26 05:52:51;;;;;;;13.52;4.72;;;22.60;99.90;;;;;;4940608;29;20401;-90
2022/09/26 05:55:24;;;;;;;19.08;4.65;;;22.60;99.90;;;;;;4943321;29;20078;-88
2022/09/26 05:58:08;;;;;;;13.95;4.18;;;22.70;99.90;;;;;;4962909;28;20041;-89
2022/09/26 06:00:53;;;;;;;17.70;4.10;;;22.80;99.90;;;;;;4955988;29;20082;-91
2022/09/26 06:03:21;;;;;;;12.35;4.28;;;22.80;99.90;;;;;;4939357;29;20396;-91
2022/09/26 06:06:07;;;;;;;15.07;3.83;;;22.80;99.90;;;;;;4941661;29;20034;-91
2022/09/26 06:08:36;;;;;;;15.43;4.03;;;22.90;99.90;;;;;;4939164;29;20035;-91
2022/09/26 06:11:23;;;;;;;13.73;4.50;;;22.90;99.90;;;;;;4956039;29;20046;-90
2022/09/26 06:13:51;;;;;;;17.55;4.68;;;22.90;99.90;;;;;;4939506;29;20428;-90
2022/09/26 06:16:20;;;;;;;15.40;3.88;;;23.00;99.90;;;;;;4939387;29;20094;-90
2022/09/26 06:18:48;;;;;;;15.90;4.18;;;23.00;99.90;;;;;;4939206;29;20031;-91
2022/09/26 06:21:16;;;;;;;16.42;4.40;;;23.00;99.90;;;;;;4939143;29;20043;-90
2022/09/26 06:23:43;;;;;;;11.27;4.20;;;23.00;99.90;;;;;;4939058;29;20034;-90
2022/09/26 06:26:24;;;;;;;12.73;3.85;;;23.00;99.90;;;;;;4939052;29;20039;-93
2022/09/26 06:29:10;;;;;;;13.77;4.25;;;23.00;99.90;;;;;;4938948;29;20031;-92
